Terminal Aerodrome Forecast
Issued by NWS

Home | Current Version | Previous Version | Text Only | Print | Product List | Glossary On
Versions: 1 2 3 4 5 6 7 8 9 10 11 12 13 14 15 16 17 18 19 20 21 22 23 24 25 26 27 28 29
678
FTUS41 KOKX 031524 AAB
TAFGON
TAF AMD
KGON 031524Z 0315/0412 05009KT 4SM -RA BR BKN009
      TEMPO 0315/0317 6SM -RA SCT010 BKN025
     FM032000 05008KT 6SM BR BKN012
     FM040000 VRB03KT 4SM BR BKN015 OVC035
     FM040700 04006KT 2SM BR BKN030 OVC060=

USA.gov is the U.S. government's official web portal to all federal, state and local government web resources and services.